sensor_id;sensor_type;location;lat;lon;timestamp;P1;durP1;ratioP1;P2;durP2;ratioP2
14171;SDS011;7165;52.388;4.928;2023-03-01T00:01:22;15.87;;;14.37;;
14171;SDS011;7165;52.388;4.928;2023-03-01T00:03:50;15.53;;;14.03;;
14171;SDS011;7165;52.388;4.928;2023-03-01T00:06:18;15.93;;;14.33;;
14171;SDS011;7165;52.388;4.928;2023-03-01T00:08:45;16.70;;;15.00;;
14171;SDS011;7165;52.388;4.928;2023-03-01T00:11:12;15.83;;;14.17;;
14171;SDS011;7165;52.388;4.928;2023-03-01T00:13:41;16.10;;;14.50;;
14171;SDS011;7165;52.388;4.928;2023-03-01T00:16:11;15.47;;;13.93;;
14171;SDS011;7165;52.388;4.928;2023-03-01T00:18:39;15.57;;;14.17;;
14171;SDS011;7165;52.388;4.928;2023-03-01T00:21:06;16.67;;;15.17;;
14171;SDS011;7165;52.388;4.928;2023-03-01T00:23:33;15.77;;;14.17;;
14171;SDS011;7165;52.388;4.928;2023-03-01T00:26:01;17.40;;;15.50;;
14171;SDS011;7165;52.388;4.928;2023-03-01T00:28:28;15.83;;;14.23;;
14171;SDS011;7165;52.388;4.928;2023-03-01T00:30:54;16.67;;;14.97;;
14171;SDS011;7165;52.388;4.928;2023-03-01T00:33:22;16.43;;;14.80;;
14171;SDS011;7165;52.388;4.928;2023-03-01T00:35:49;16.70;;;15.00;;
14171;SDS011;7165;52.388;4.928;2023-03-01T00:38:16;17.23;;;15.43;;
14171;SDS011;7165;52.388;4.928;2023-03-01T00:40:42;17.53;;;15.63;;
14171;SDS011;7165;52.388;4.928;2023-03-01T00:43:09;18.57;;;16.73;;
14171;SDS011;7165;52.388;4.928;2023-03-01T00:45:36;18.53;;;16.70;;
14171;SDS011;7165;52.388;4.928;2023-03-01T00:48:02;17.87;;;16.13;;
14171;SDS011;7165;52.388;4.928;2023-03-01T00:50:31;17.43;;;15.63;;
14171;SDS011;7165;52.388;4.928;2023-03-01T00:52:58;16.53;;;14.93;;
14171;SDS011;7165;52.388;4.928;2023-03-01T00:55:25;19.07;;;17.10;;
14171;SDS011;7165;52.388;4.928;2023-03-01T00:57:51;17.87;;;16.13;;
14171;SDS011;7165;52.388;4.928;2023-03-01T01:00:19;18.13;;;16.40;;
14171;SDS011;7165;52.388;4.928;2023-03-01T01:02:46;19.27;;;17.40;;
14171;SDS011;7165;52.388;4.928;2023-03-01T01:05:12;19.00;;;17.00;;
14171;SDS011;7165;52.388;4.928;2023-03-01T01:07:41;18.93;;;17.13;;
14171;SDS011;7165;52.388;4.928;2023-03-01T01:10:09;18.27;;;16.40;;
14171;SDS011;7165;52.388;4.928;2023-03-01T01:12:41;18.37;;;16.47;;
14171;SDS011;7165;52.388;4.928;2023-03-01T01:15:09;17.93;;;16.03;;
14171;SDS011;7165;52.388;4.928;2023-03-01T01:17:38;19.23;;;16.17;;
14171;SDS011;7165;52.388;4.928;2023-03-01T01:20:04;21.00;;;17.87;;
14171;SDS011;7165;52.388;4.928;2023-03-01T01:22:32;18.27;;;16.20;;
14171;SDS011;7165;52.388;4.928;2023-03-01T01:25:00;20.50;;;18.30;;
14171;SDS011;7165;52.388;4.928;2023-03-01T01:27:27;19.60;;;17.70;;
14171;SDS011;7165;52.388;4.928;2023-03-01T01:29:53;21.10;;;18.93;;
14171;SDS011;7165;52.388;4.928;2023-03-01T01:32:20;20.00;;;17.90;;
14171;SDS011;7165;52.388;4.928;2023-03-01T01:34:47;19.53;;;17.17;;
14171;SDS011;7165;52.388;4.928;2023-03-01T01:37:13;19.70;;;17.70;;
14171;SDS011;7165;52.388;4.928;2023-03-01T01:39:40;18.47;;;16.67;;
14171;SDS011;7165;52.388;4.928;2023-03-01T01:44:42;18.93;;;17.10;;
14171;SDS011;7165;52.388;4.928;2023-03-01T01:47:12;19.63;;;17.50;;
14171;SDS011;7165;52.388;4.928;2023-03-01T01:49:42;20.10;;;18.00;;
14171;SDS011;7165;52.388;4.928;2023-03-01T01:52:13;19.27;;;17.37;;
14171;SDS011;7165;52.388;4.928;2023-03-01T01:54:44;21.60;;;19.40;;
14171;SDS011;7165;52.388;4.928;2023-03-01T01:57:18;21.10;;;18.47;;
14171;SDS011;7165;52.388;4.928;2023-03-01T01:59:48;19.73;;;17.63;;
14171;SDS011;7165;52.388;4.928;2023-03-01T02:02:17;20.03;;;18.03;;
14171;SDS011;7165;52.388;4.928;2023-03-01T02:04:44;19.50;;;17.60;;
14171;SDS011;7165;52.388;4.928;2023-03-01T02:07:14;22.63;;;19.00;;
14171;SDS011;7165;52.388;4.928;2023-03-01T02:09:43;20.40;;;18.40;;
14171;SDS011;7165;52.388;4.928;2023-03-01T02:12:13;21.50;;;19.40;;
14171;SDS011;7165;52.388;4.928;2023-03-01T02:14:41;21.90;;;19.33;;
14171;SDS011;7165;52.388;4.928;2023-03-01T02:17:08;22.53;;;19.97;;
14171;SDS011;7165;52.388;4.928;2023-03-01T02:19:40;20.73;;;18.60;;
14171;SDS011;7165;52.388;4.928;2023-03-01T02:22:18;21.00;;;18.83;;
14171;SDS011;7165;52.388;4.928;2023-03-01T02:24:54;20.67;;;18.50;;
14171;SDS011;7165;52.388;4.928;2023-03-01T02:27:36;19.63;;;17.53;;
14171;SDS011;7165;52.388;4.928;2023-03-01T02:30:11;22.20;;;19.80;;
14171;SDS011;7165;52.388;4.928;2023-03-01T02:32:39;22.33;;;19.63;;
14171;SDS011;7165;52.388;4.928;2023-03-01T02:35:06;22.23;;;19.93;;
14171;SDS011;7165;52.388;4.928;2023-03-01T02:37:36;24.30;;;20.83;;
14171;SDS011;7165;52.388;4.928;2023-03-01T02:40:04;21.80;;;19.50;;
14171;SDS011;7165;52.388;4.928;2023-03-01T02:42:36;22.57;;;20.20;;
14171;SDS011;7165;52.388;4.928;2023-03-01T02:45:09;21.60;;;19.40;;
14171;SDS011;7165;52.388;4.928;2023-03-01T02:47:37;22.93;;;20.37;;
14171;SDS011;7165;52.388;4.928;2023-03-01T02:50:09;21.23;;;19.17;;
14171;SDS011;7165;52.388;4.928;2023-03-01T02:52:43;22.03;;;19.70;;
14171;SDS011;7165;52.388;4.928;2023-03-01T02:55:14;22.23;;;19.87;;
14171;SDS011;7165;52.388;4.928;2023-03-01T02:57:43;24.60;;;20.90;;
14171;SDS011;7165;52.388;4.928;2023-03-01T03:00:12;22.30;;;20.00;;
14171;SDS011;7165;52.388;4.928;2023-03-01T03:02:45;22.87;;;20.43;;
14171;SDS011;7165;52.388;4.928;2023-03-01T03:05:14;23.33;;;20.03;;
14171;SDS011;7165;52.388;4.928;2023-03-01T03:07:43;24.43;;;21.77;;
14171;SDS011;7165;52.388;4.928;2023-03-01T03:10:12;23.67;;;21.27;;
14171;SDS011;7165;52.388;4.928;2023-03-01T03:12:41;24.27;;;21.67;;
14171;SDS011;7165;52.388;4.928;2023-03-01T03:15:08;24.30;;;21.80;;
14171;SDS011;7165;52.388;4.928;2023-03-01T03:17:37;23.90;;;21.40;;
14171;SDS011;7165;52.388;4.928;2023-03-01T03:20:09;24.30;;;21.57;;
14171;SDS011;7165;52.388;4.928;2023-03-01T03:22:38;23.20;;;20.80;;
14171;SDS011;7165;52.388;4.928;2023-03-01T03:25:05;25.77;;;22.93;;
14171;SDS011;7165;52.388;4.928;2023-03-01T03:27:35;23.20;;;20.80;;
14171;SDS011;7165;52.388;4.928;2023-03-01T03:30:03;24.33;;;20.87;;
14171;SDS011;7165;52.388;4.928;2023-03-01T03:32:33;23.20;;;19.87;;
14171;SDS011;7165;52.388;4.928;2023-03-01T03:35:00;24.70;;;21.33;;
14171;SDS011;7165;52.388;4.928;2023-03-01T03:37:28;24.70;;;21.83;;
14171;SDS011;7165;52.388;4.928;2023-03-01T03:40:12;25.23;;;22.30;;
14171;SDS011;7165;52.388;4.928;2023-03-01T03:42:41;25.17;;;22.60;;
14171;SDS011;7165;52.388;4.928;2023-03-01T03:45:08;27.17;;;22.73;;
14171;SDS011;7165;52.388;4.928;2023-03-01T03:47:35;24.27;;;21.67;;
14171;SDS011;7165;52.388;4.928;2023-03-01T03:50:01;24.13;;;21.60;;
14171;SDS011;7165;52.388;4.928;2023-03-01T03:52:29;23.97;;;21.40;;
14171;SDS011;7165;52.388;4.928;2023-03-01T03:54:56;26.70;;;23.77;;
14171;SDS011;7165;52.388;4.928;2023-03-01T03:57:22;26.07;;;22.90;;
14171;SDS011;7165;52.388;4.928;2023-03-01T03:59:49;26.53;;;22.27;;
14171;SDS011;7165;52.388;4.928;2023-03-01T04:02:16;25.70;;;21.67;;
14171;SDS011;7165;52.388;4.928;2023-03-01T04:04:46;25.67;;;21.13;;
14171;SDS011;7165;52.388;4.928;2023-03-01T04:07:14;25.23;;;22.33;;
14171;SDS011;7165;52.388;4.928;2023-03-01T04:09:42;24.97;;;22.23;;
14171;SDS011;7165;52.388;4.928;2023-03-01T04:12:09;27.13;;;22.23;;
14171;SDS011;7165;52.388;4.928;2023-03-01T04:14:36;26.33;;;23.27;;
14171;SDS011;7165;52.388;4.928;2023-03-01T04:17:03;27.80;;;23.40;;
14171;SDS011;7165;52.388;4.928;2023-03-01T04:19:30;26.10;;;23.30;;
14171;SDS011;7165;52.388;4.928;2023-03-01T04:22:01;26.77;;;22.63;;
14171;SDS011;7165;52.388;4.928;2023-03-01T04:24:32;28.13;;;24.23;;
14171;SDS011;7165;52.388;4.928;2023-03-01T04:27:00;26.43;;;23.33;;
14171;SDS011;7165;52.388;4.928;2023-03-01T04:29:27;25.00;;;22.37;;
14171;SDS011;7165;52.388;4.928;2023-03-01T04:31:54;24.13;;;21.53;;
14171;SDS011;7165;52.388;4.928;2023-03-01T04:34:21;24.43;;;21.87;;
14171;SDS011;7165;52.388;4.928;2023-03-01T04:36:47;24.47;;;21.97;;
14171;SDS011;7165;52.388;4.928;2023-03-01T04:39:14;25.77;;;22.77;;
14171;SDS011;7165;52.388;4.928;2023-03-01T04:41:41;24.93;;;22.23;;
14171;SDS011;7165;52.388;4.928;2023-03-01T04:44:10;25.03;;;22.17;;
14171;SDS011;7165;52.388;4.928;2023-03-01T04:46:37;23.63;;;21.17;;
14171;SDS011;7165;52.388;4.928;2023-03-01T04:49:04;24.13;;;21.57;;
14171;SDS011;7165;52.388;4.928;2023-03-01T04:51:31;25.23;;;22.43;;
14171;SDS011;7165;52.388;4.928;2023-03-01T04:53:58;25.93;;;23.20;;
14171;SDS011;7165;52.388;4.928;2023-03-01T04:56:25;28.50;;;22.90;;
14171;SDS011;7165;52.388;4.928;2023-03-01T04:58:52;26.30;;;23.20;;
14171;SDS011;7165;52.388;4.928;2023-03-01T05:01:21;26.20;;;22.63;;
14171;SDS011;7165;52.388;4.928;2023-03-01T05:03:49;25.97;;;22.30;;
14171;SDS011;7165;52.388;4.928;2023-03-01T05:06:17;25.27;;;22.40;;
14171;SDS011;7165;52.388;4.928;2023-03-01T05:08:44;24.93;;;21.73;;
14171;SDS011;7165;52.388;4.928;2023-03-01T05:11:11;25.63;;;21.40;;
14171;SDS011;7165;52.388;4.928;2023-03-01T05:13:38;23.97;;;21.47;;
14171;SDS011;7165;52.388;4.928;2023-03-01T05:16:06;23.13;;;20.73;;
14171;SDS011;7165;52.388;4.928;2023-03-01T05:18:37;23.87;;;21.40;;
14171;SDS011;7165;52.388;4.928;2023-03-01T05:21:05;27.07;;;22.73;;
14171;SDS011;7165;52.388;4.928;2023-03-01T05:23:32;26.13;;;22.70;;
14171;SDS011;7165;52.388;4.928;2023-03-01T05:26:01;28.27;;;23.37;;
14171;SDS011;7165;52.388;4.928;2023-03-01T05:28:29;26.87;;;22.90;;
14171;SDS011;7165;52.388;4.928;2023-03-01T05:30:56;27.57;;;23.27;;
14171;SDS011;7165;52.388;4.928;2023-03-01T05:33:24;27.67;;;23.33;;
14171;SDS011;7165;52.388;4.928;2023-03-01T05:35:53;29.03;;;23.90;;
14171;SDS011;7165;52.388;4.928;2023-03-01T05:38:20;26.67;;;23.63;;
14171;SDS011;7165;52.388;4.928;2023-03-01T05:40:47;25.77;;;22.83;;
14171;SDS011;7165;52.388;4.928;2023-03-01T05:43:15;25.57;;;22.20;;
14171;SDS011;7165;52.388;4.928;2023-03-01T05:45:43;28.37;;;23.87;;
14171;SDS011;7165;52.388;4.928;2023-03-01T05:48:10;26.77;;;22.93;;
14171;SDS011;7165;52.388;4.928;2023-03-01T05:50:38;28.13;;;25.13;;
14171;SDS011;7165;52.388;4.928;2023-03-01T05:53:09;26.70;;;23.80;;
14171;SDS011;7165;52.388;4.928;2023-03-01T05:55:38;29.10;;;24.93;;
14171;SDS011;7165;52.388;4.928;2023-03-01T05:58:06;29.57;;;25.17;;
14171;SDS011;7165;52.388;4.928;2023-03-01T06:00:34;28.77;;;24.17;;
14171;SDS011;7165;52.388;4.928;2023-03-01T06:03:01;28.37;;;25.37;;
14171;SDS011;7165;52.388;4.928;2023-03-01T06:05:27;30.33;;;25.30;;
14171;SDS011;7165;52.388;4.928;2023-03-01T06:07:54;28.00;;;24.67;;
14171;SDS011;7165;52.388;4.928;2023-03-01T06:10:25;28.07;;;24.10;;
14171;SDS011;7165;52.388;4.928;2023-03-01T06:12:52;28.70;;;24.27;;
14171;SDS011;7165;52.388;4.928;2023-03-01T06:15:20;27.10;;;24.30;;
14171;SDS011;7165;52.388;4.928;2023-03-01T06:17:46;25.00;;;22.23;;
14171;SDS011;7165;52.388;4.928;2023-03-01T06:20:15;23.73;;;21.13;;
14171;SDS011;7165;52.388;4.928;2023-03-01T06:22:44;23.87;;;21.27;;
14171;SDS011;7165;52.388;4.928;2023-03-01T06:25:12;23.30;;;20.67;;
14171;SDS011;7165;52.388;4.928;2023-03-01T06:27:41;25.33;;;22.63;;
14171;SDS011;7165;52.388;4.928;2023-03-01T06:30:08;26.10;;;21.87;;
14171;SDS011;7165;52.388;4.928;2023-03-01T06:32:37;23.97;;;21.37;;
14171;SDS011;7165;52.388;4.928;2023-03-01T06:35:07;22.70;;;20.40;;
14171;SDS011;7165;52.388;4.928;2023-03-01T06:37:34;24.47;;;20.63;;
14171;SDS011;7165;52.388;4.928;2023-03-01T06:40:01;23.63;;;19.13;;
14171;SDS011;7165;52.388;4.928;2023-03-01T06:42:33;21.27;;;19.03;;
14171;SDS011;7165;52.388;4.928;2023-03-01T06:45:01;21.27;;;19.17;;
14171;SDS011;7165;52.388;4.928;2023-03-01T06:47:28;19.93;;;17.83;;
14171;SDS011;7165;52.388;4.928;2023-03-01T06:49:55;20.30;;;18.30;;
14171;SDS011;7165;52.388;4.928;2023-03-01T06:52:21;18.70;;;16.87;;
14171;SDS011;7165;52.388;4.928;2023-03-01T06:54:48;19.97;;;17.97;;
14171;SDS011;7165;52.388;4.928;2023-03-01T06:57:15;17.87;;;16.17;;
14171;SDS011;7165;52.388;4.928;2023-03-01T06:59:41;16.57;;;15.10;;
14171;SDS011;7165;52.388;4.928;2023-03-01T07:02:10;17.17;;;15.57;;
14171;SDS011;7165;52.388;4.928;2023-03-01T07:04:38;17.60;;;15.90;;
14171;SDS011;7165;52.388;4.928;2023-03-01T07:07:05;23.73;;;16.80;;
14171;SDS011;7165;52.388;4.928;2023-03-01T07:09:31;17.00;;;15.53;;
14171;SDS011;7165;52.388;4.928;2023-03-01T07:11:58;16.60;;;15.20;;
14171;SDS011;7165;52.388;4.928;2023-03-01T07:14:25;16.93;;;15.33;;
14171;SDS011;7165;52.388;4.928;2023-03-01T07:16:52;15.63;;;14.33;;
14171;SDS011;7165;52.388;4.928;2023-03-01T07:19:20;16.27;;;14.70;;
14171;SDS011;7165;52.388;4.928;2023-03-01T07:21:47;16.00;;;14.43;;
14171;SDS011;7165;52.388;4.928;2023-03-01T07:24:24;15.13;;;13.73;;
14171;SDS011;7165;52.388;4.928;2023-03-01T07:26:51;17.77;;;16.13;;
14171;SDS011;7165;52.388;4.928;2023-03-01T07:29:18;16.30;;;14.80;;
14171;SDS011;7165;52.388;4.928;2023-03-01T07:31:45;16.53;;;14.93;;
14171;SDS011;7165;52.388;4.928;2023-03-01T07:34:11;16.87;;;15.27;;
14171;SDS011;7165;52.388;4.928;2023-03-01T07:36:39;16.87;;;15.37;;
14171;SDS011;7165;52.388;4.928;2023-03-01T07:39:08;17.83;;;16.13;;
14171;SDS011;7165;52.388;4.928;2023-03-01T07:41:35;16.80;;;15.30;;
14171;SDS011;7165;52.388;4.928;2023-03-01T07:44:02;16.13;;;14.63;;
14171;SDS011;7165;52.388;4.928;2023-03-01T07:46:29;17.13;;;14.77;;
14171;SDS011;7165;52.388;4.928;2023-03-01T07:48:55;16.70;;;15.20;;
14171;SDS011;7165;52.388;4.928;2023-03-01T07:51:23;17.73;;;16.10;;
14171;SDS011;7165;52.388;4.928;2023-03-01T07:53:51;18.17;;;16.33;;
14171;SDS011;7165;52.388;4.928;2023-03-01T07:56:18;16.97;;;15.57;;
14171;SDS011;7165;52.388;4.928;2023-03-01T07:58:46;17.67;;;16.07;;
14171;SDS011;7165;52.388;4.928;2023-03-01T08:01:14;18.13;;;16.43;;
14171;SDS011;7165;52.388;4.928;2023-03-01T08:03:41;18.17;;;16.47;;
14171;SDS011;7165;52.388;4.928;2023-03-01T08:06:11;18.80;;;17.00;;
14171;SDS011;7165;52.388;4.928;2023-03-01T08:08:38;19.90;;;18.10;;
14171;SDS011;7165;52.388;4.928;2023-03-01T08:11:07;20.23;;;18.33;;
14171;SDS011;7165;52.388;4.928;2023-03-01T08:13:36;21.33;;;18.93;;
14171;SDS011;7165;52.388;4.928;2023-03-01T08:16:03;21.27;;;19.13;;
14171;SDS011;7165;52.388;4.928;2023-03-01T08:18:31;21.13;;;19.13;;
14171;SDS011;7165;52.388;4.928;2023-03-01T08:21:00;22.43;;;20.23;;
14171;SDS011;7165;52.388;4.928;2023-03-01T08:23:28;21.67;;;19.57;;
14171;SDS011;7165;52.388;4.928;2023-03-01T08:25:55;22.40;;;20.20;;
14171;SDS011;7165;52.388;4.928;2023-03-01T08:28:30;22.13;;;20.00;;
14171;SDS011;7165;52.388;4.928;2023-03-01T08:30:57;22.37;;;20.20;;
14171;SDS011;7165;52.388;4.928;2023-03-01T08:33:24;24.93;;;22.37;;
14171;SDS011;7165;52.388;4.928;2023-03-01T08:35:51;22.43;;;20.20;;
14171;SDS011;7165;52.388;4.928;2023-03-01T08:38:17;26.07;;;22.60;;
14171;SDS011;7165;52.388;4.928;2023-03-01T08:40:44;25.97;;;22.37;;
14171;SDS011;7165;52.388;4.928;2023-03-01T08:43:10;23.40;;;21.00;;
14171;SDS011;7165;52.388;4.928;2023-03-01T08:45:38;27.20;;;24.30;;
14171;SDS011;7165;52.388;4.928;2023-03-01T08:48:05;36.10;;;22.73;;
14171;SDS011;7165;52.388;4.928;2023-03-01T08:50:32;27.07;;;23.10;;
14171;SDS011;7165;52.388;4.928;2023-03-01T08:52:58;65.73;;;23.77;;
14171;SDS011;7165;52.388;4.928;2023-03-01T08:55:25;87.67;;;25.23;;
14171;SDS011;7165;52.388;4.928;2023-03-01T08:57:52;56.77;;;21.90;;
14171;SDS011;7165;52.388;4.928;2023-03-01T09:00:18;26.60;;;21.47;;
14171;SDS011;7165;52.388;4.928;2023-03-01T09:02:47;51.87;;;22.63;;
14171;SDS011;7165;52.388;4.928;2023-03-01T09:05:14;22.87;;;20.23;;
14171;SDS011;7165;52.388;4.928;2023-03-01T09:07:40;29.80;;;22.03;;
14171;SDS011;7165;52.388;4.928;2023-03-01T09:10:08;28.47;;;21.53;;
14171;SDS011;7165;52.388;4.928;2023-03-01T09:12:35;28.13;;;23.63;;
14171;SDS011;7165;52.388;4.928;2023-03-01T09:15:02;29.87;;;23.80;;
14171;SDS011;7165;52.388;4.928;2023-03-01T09:17:29;31.67;;;24.43;;
14171;SDS011;7165;52.388;4.928;2023-03-01T09:19:57;28.80;;;25.70;;
14171;SDS011;7165;52.388;4.928;2023-03-01T09:22:24;28.67;;;24.40;;
14171;SDS011;7165;52.388;4.928;2023-03-01T09:24:51;28.60;;;25.00;;
14171;SDS011;7165;52.388;4.928;2023-03-01T09:27:17;29.97;;;25.27;;
14171;SDS011;7165;52.388;4.928;2023-03-01T09:29:45;30.07;;;25.40;;
14171;SDS011;7165;52.388;4.928;2023-03-01T09:32:12;28.07;;;24.97;;
14171;SDS011;7165;52.388;4.928;2023-03-01T09:34:38;30.57;;;24.97;;
14171;SDS011;7165;52.388;4.928;2023-03-01T09:37:21;26.87;;;23.97;;
14171;SDS011;7165;52.388;4.928;2023-03-01T09:39:47;27.80;;;24.80;;
14171;SDS011;7165;52.388;4.928;2023-03-01T09:42:14;26.90;;;24.00;;
14171;SDS011;7165;52.388;4.928;2023-03-01T09:44:43;28.17;;;25.07;;
14171;SDS011;7165;52.388;4.928;2023-03-01T09:47:16;28.63;;;22.30;;
14171;SDS011;7165;52.388;4.928;2023-03-01T09:49:45;23.70;;;21.20;;
14171;SDS011;7165;52.388;4.928;2023-03-01T09:52:21;23.23;;;20.77;;
14171;SDS011;7165;52.388;4.928;2023-03-01T09:54:54;22.43;;;20.13;;
14171;SDS011;7165;52.388;4.928;2023-03-01T09:57:25;24.60;;;22.00;;
14171;SDS011;7165;52.388;4.928;2023-03-01T10:00:01;24.27;;;21.67;;
14171;SDS011;7165;52.388;4.928;2023-03-01T10:02:38;25.57;;;22.87;;
14171;SDS011;7165;52.388;4.928;2023-03-01T10:05:13;26.00;;;23.30;;
14171;SDS011;7165;52.388;4.928;2023-03-01T10:07:54;24.63;;;21.70;;
14171;SDS011;7165;52.388;4.928;2023-03-01T10:10:32;26.53;;;22.73;;
14171;SDS011;7165;52.388;4.928;2023-03-01T10:13:00;24.80;;;22.27;;
14171;SDS011;7165;52.388;4.928;2023-03-01T10:15:35;22.73;;;20.33;;
14171;SDS011;7165;52.388;4.928;2023-03-01T10:18:10;24.60;;;22.03;;
14171;SDS011;7165;52.388;4.928;2023-03-01T10:20:42;24.07;;;21.77;;
14171;SDS011;7165;52.388;4.928;2023-03-01T10:23:14;24.83;;;22.13;;
14171;SDS011;7165;52.388;4.928;2023-03-01T10:25:44;25.70;;;22.67;;
14171;SDS011;7165;52.388;4.928;2023-03-01T10:28:24;28.37;;;25.03;;
14171;SDS011;7165;52.388;4.928;2023-03-01T10:30:55;24.97;;;22.30;;
14171;SDS011;7165;52.388;4.928;2023-03-01T10:33:24;26.87;;;24.27;;
14171;SDS011;7165;52.388;4.928;2023-03-01T10:35:53;24.77;;;22.27;;
14171;SDS011;7165;52.388;4.928;2023-03-01T10:43:19;22.60;;;20.37;;
14171;SDS011;7165;52.388;4.928;2023-03-01T10:48:14;22.83;;;20.50;;
14171;SDS011;7165;52.388;4.928;2023-03-01T10:55:47;20.03;;;18.03;;
14171;SDS011;7165;52.388;4.928;2023-03-01T10:58:23;18.00;;;16.20;;
14171;SDS011;7165;52.388;4.928;2023-03-01T11:00:51;16.13;;;14.63;;
14171;SDS011;7165;52.388;4.928;2023-03-01T11:03:21;15.20;;;13.63;;
14171;SDS011;7165;52.388;4.928;2023-03-01T11:05:59;15.53;;;13.90;;
14171;SDS011;7165;52.388;4.928;2023-03-01T11:08:32;13.07;;;11.70;;
14171;SDS011;7165;52.388;4.928;2023-03-01T11:14:00;15.53;;;13.93;;
14171;SDS011;7165;52.388;4.928;2023-03-01T11:16:31;14.90;;;13.43;;
14171;SDS011;7165;52.388;4.928;2023-03-01T11:19:01;15.47;;;14.07;;
14171;SDS011;7165;52.388;4.928;2023-03-01T11:21:41;16.53;;;14.83;;
14171;SDS011;7165;52.388;4.928;2023-03-01T11:24:10;16.60;;;15.10;;
14171;SDS011;7165;52.388;4.928;2023-03-01T11:26:43;16.43;;;14.83;;
14171;SDS011;7165;52.388;4.928;2023-03-01T11:29:15;16.57;;;14.97;;
14171;SDS011;7165;52.388;4.928;2023-03-01T11:52:42;19.87;;;17.87;;
14171;SDS011;7165;52.388;4.928;2023-03-01T11:55:19;19.88;;;17.98;;
14171;SDS011;7165;52.388;4.928;2023-03-01T11:58:00;19.90;;;17.90;;
14171;SDS011;7165;52.388;4.928;2023-03-01T12:00:42;21.60;;;19.33;;
14171;SDS011;7165;52.388;4.928;2023-03-01T12:03:23;19.23;;;17.37;;
14171;SDS011;7165;52.388;4.928;2023-03-01T12:06:12;18.97;;;16.83;;
14171;SDS011;7165;52.388;4.928;2023-03-01T12:08:50;18.63;;;16.77;;
14171;SDS011;7165;52.388;4.928;2023-03-01T12:11:28;18.20;;;16.33;;
14171;SDS011;7165;52.388;4.928;2023-03-01T12:14:20;18.93;;;16.73;;
14171;SDS011;7165;52.388;4.928;2023-03-01T12:17:02;18.33;;;16.40;;
14171;SDS011;7165;52.388;4.928;2023-03-01T12:19:54;16.63;;;14.93;;
14171;SDS011;7165;52.388;4.928;2023-03-01T12:22:44;16.77;;;15.10;;
14171;SDS011;7165;52.388;4.928;2023-03-01T12:25:24;16.47;;;14.97;;
14171;SDS011;7165;52.388;4.928;2023-03-01T12:28:03;16.05;;;14.45;;
14171;SDS011;7165;52.388;4.928;2023-03-01T14:04:47;16.27;;;14.52;;
14171;SDS011;7165;52.388;4.928;2023-03-01T14:07:23;15.25;;;13.70;;
14171;SDS011;7165;52.388;4.928;2023-03-01T14:09:51;14.20;;;12.77;;
14171;SDS011;7165;52.388;4.928;2023-03-01T14:12:30;12.70;;;11.50;;
14171;SDS011;7165;52.388;4.928;2023-03-01T14:15:06;12.00;;;10.80;;
14171;SDS011;7165;52.388;4.928;2023-03-01T14:17:44;12.68;;;11.38;;
14171;SDS011;7165;52.388;4.928;2023-03-01T14:20:19;12.38;;;11.18;;
14171;SDS011;7165;52.388;4.928;2023-03-01T14:35:20;14.60;;;10.98;;
14171;SDS011;7165;52.388;4.928;2023-03-01T14:37:48;10.88;;;9.85;;
14171;SDS011;7165;52.388;4.928;2023-03-01T14:40:20;11.43;;;10.38;;
14171;SDS011;7165;52.388;4.928;2023-03-01T14:42:48;11.43;;;10.23;;
14171;SDS011;7165;52.388;4.928;2023-03-01T14:45:16;11.00;;;9.90;;
14171;SDS011;7165;52.388;4.928;2023-03-01T14:47:43;10.95;;;9.80;;
14171;SDS011;7165;52.388;4.928;2023-03-01T14:50:15;9.90;;;8.98;;
14171;SDS011;7165;52.388;4.928;2023-03-01T14:52:48;10.65;;;9.65;;
14171;SDS011;7165;52.388;4.928;2023-03-01T14:55:18;10.70;;;9.32;;
14171;SDS011;7165;52.388;4.928;2023-03-01T14:57:47;10.57;;;9.60;;
14171;SDS011;7165;52.388;4.928;2023-03-01T15:00:16;10.20;;;8.35;;
14171;SDS011;7165;52.388;4.928;2023-03-01T15:02:46;9.70;;;7.93;;
14171;SDS011;7165;52.388;4.928;2023-03-01T15:05:14;10.82;;;8.35;;
14171;SDS011;7165;52.388;4.928;2023-03-01T15:07:45;8.75;;;7.88;;
14171;SDS011;7165;52.388;4.928;2023-03-01T15:10:14;9.13;;;8.32;;
14171;SDS011;7165;52.388;4.928;2023-03-01T15:12:45;8.15;;;7.35;;
14171;SDS011;7165;52.388;4.928;2023-03-01T15:15:31;8.38;;;7.40;;
14171;SDS011;7165;52.388;4.928;2023-03-01T15:18:00;8.10;;;7.30;;
14171;SDS011;7165;52.388;4.928;2023-03-01T15:20:29;8.27;;;7.65;;
14171;SDS011;7165;52.388;4.928;2023-03-01T15:23:02;9.68;;;8.77;;
14171;SDS011;7165;52.388;4.928;2023-03-01T15:25:30;8.35;;;7.60;;
14171;SDS011;7165;52.388;4.928;2023-03-01T15:27:59;9.35;;;8.40;;
14171;SDS011;7165;52.388;4.928;2023-03-01T15:30:28;8.43;;;7.63;;
14171;SDS011;7165;52.388;4.928;2023-03-01T15:35:56;8.88;;;7.97;;
14171;SDS011;7165;52.388;4.928;2023-03-01T15:38:29;9.05;;;8.27;;
14171;SDS011;7165;52.388;4.928;2023-03-01T15:40:58;9.02;;;8.15;;
14171;SDS011;7165;52.388;4.928;2023-03-01T15:43:36;8.00;;;7.20;;
14171;SDS011;7165;52.388;4.928;2023-03-01T15:46:05;8.70;;;7.85;;
14171;SDS011;7165;52.388;4.928;2023-03-01T15:48:47;9.93;;;7.90;;
14171;SDS011;7165;52.388;4.928;2023-03-01T15:51:17;8.20;;;7.50;;
14171;SDS011;7165;52.388;4.928;2023-03-01T15:53:48;9.02;;;8.13;;
14171;SDS011;7165;52.388;4.928;2023-03-01T15:56:17;8.10;;;7.38;;
14171;SDS011;7165;52.388;4.928;2023-03-01T15:58:44;8.18;;;7.35;;
14171;SDS011;7165;52.388;4.928;2023-03-01T16:01:11;8.18;;;7.47;;
14171;SDS011;7165;52.388;4.928;2023-03-01T16:03:40;10.27;;;9.35;;
14171;SDS011;7165;52.388;4.928;2023-03-01T16:06:08;8.75;;;7.90;;
14171;SDS011;7165;52.388;4.928;2023-03-01T16:08:35;9.70;;;8.57;;
14171;SDS011;7165;52.388;4.928;2023-03-01T16:11:04;8.93;;;8.10;;
14171;SDS011;7165;52.388;4.928;2023-03-01T16:13:37;9.50;;;8.50;;
14171;SDS011;7165;52.388;4.928;2023-03-01T16:16:03;8.73;;;8.02;;
14171;SDS011;7165;52.388;4.928;2023-03-01T16:18:31;9.13;;;8.23;;
14171;SDS011;7165;52.388;4.928;2023-03-01T16:20:57;9.20;;;8.33;;
14171;SDS011;7165;52.388;4.928;2023-03-01T16:23:24;9.40;;;8.55;;
14171;SDS011;7165;52.388;4.928;2023-03-01T16:25:52;9.05;;;8.20;;
14171;SDS011;7165;52.388;4.928;2023-03-01T16:28:20;9.53;;;8.57;;
14171;SDS011;7165;52.388;4.928;2023-03-01T16:30:47;8.88;;;8.00;;
14171;SDS011;7165;52.388;4.928;2023-03-01T16:33:14;8.60;;;7.80;;
14171;SDS011;7165;52.388;4.928;2023-03-01T16:35:40;9.80;;;8.43;;
14171;SDS011;7165;52.388;4.928;2023-03-01T16:38:08;9.37;;;8.47;;
14171;SDS011;7165;52.388;4.928;2023-03-01T16:40:35;9.40;;;8.43;;
14171;SDS011;7165;52.388;4.928;2023-03-01T16:43:02;9.93;;;9.03;;
14171;SDS011;7165;52.388;4.928;2023-03-01T16:50:26;9.23;;;8.30;;
14171;SDS011;7165;52.388;4.928;2023-03-01T16:52:53;9.47;;;8.57;;
14171;SDS011;7165;52.388;4.928;2023-03-01T16:55:20;10.03;;;8.50;;
14171;SDS011;7165;52.388;4.928;2023-03-01T16:57:46;10.97;;;9.20;;
14171;SDS011;7165;52.388;4.928;2023-03-01T17:00:13;9.80;;;8.83;;
14171;SDS011;7165;52.388;4.928;2023-03-01T17:02:42;10.17;;;8.77;;
14171;SDS011;7165;52.388;4.928;2023-03-01T17:05:09;9.43;;;8.37;;
14171;SDS011;7165;52.388;4.928;2023-03-01T17:07:37;10.00;;;9.10;;
14171;SDS011;7165;52.388;4.928;2023-03-01T17:10:05;9.67;;;8.67;;
14171;SDS011;7165;52.388;4.928;2023-03-01T17:12:34;10.60;;;9.30;;
14171;SDS011;7165;52.388;4.928;2023-03-01T17:15:01;10.17;;;9.07;;
14171;SDS011;7165;52.388;4.928;2023-03-01T17:17:29;10.80;;;9.53;;
14171;SDS011;7165;52.388;4.928;2023-03-01T17:25:47;9.70;;;8.77;;
14171;SDS011;7165;52.388;4.928;2023-03-01T17:28:14;10.23;;;9.30;;
14171;SDS011;7165;52.388;4.928;2023-03-01T17:30:41;10.77;;;9.67;;